Latest Weather Observations for Coolangatta

IDQ60901

Issued at 6:51 am EST Saturday 5 September 2015 (issued every 10 minutes, with the page automatically refreshed every 10 minutes)

About weather observations | Map of Brisbane area stations | Latest observations for Brisbane area | Other Formats
Station Details ID: 040717 Name: COOLANGATTA Lat: -28.17 Lon: 153.51 Height: 4.0 m
Data from the previous 72 hours. | See also: Recent months at Coolangatta
Date/Time
EST
Tmp

°C
App
Tmp
°C
Dew
Point
°C
Rel
Hum
%
Delta-T

°C
Wind Press
QNH
hPa
Press
MSL
hPa
Rain
since
9 am
mm
Dir
 
Spd
km/h
Gust
km/h
Spd
kts
Gust
kts
05/06:30am 14.4 13.1 11.2 81 1.7 SW 9 11 5 6 1021.3 1021.3 0.0
05/06:00am 14.8 12.7 11.2 79 1.9 SW 13 17 7 9 1021.1 1021.1 0.0
05/05:30am 14.7 12.6 11.3 80 1.8 SSW 13 19 7 10 1020.8 1020.8 0.0
05/05:00am 14.9 12.9 11.5 80 1.8 SSW 13 20 7 11 1020.4 1020.4 0.0
05/04:30am 14.8 12.5 11.6 81 1.7 SSW 15 22 8 12 1020.2 1020.2 0.0
05/04:00am 14.7 12.0 11.7 82 1.6 S 17 26 9 14 1020.1 1020.1 0.0
05/03:30am 15.2 13.2 11.4 78 2.0 SSW 13 19 7 10 1019.8 1019.8 0.0
05/03:00am 15.3 14.2 11.9 80 1.8 SSW 9 17 5 9 1019.6 1019.6 0.0
05/02:30am 14.2 13.4 11.7 85 1.3 SW 7 15 4 8 1019.9 1019.9 0.0
05/02:00am 14.2 13.0 11.7 85 1.3 SW 9 13 5 7 1020.1 1020.1 0.0
05/01:30am 14.4 13.1 11.2 81 1.7 SW 9 15 5 8 1020.3 1020.3 0.0
05/01:00am 14.8 12.8 11.6 81 1.7 SSW 13 17 7 9 1020.5 1020.5 0.0
05/12:30am 14.1 12.3 10.9 81 1.7 SSE 11 13 6 7 1020.6 1020.6 0.0
05/12:00am 15.0 13.4 11.6 80 1.8 SSW 11 13 6 7 1020.6 1020.6 0.0
 
Date/Time
EST
Tmp

°C
App
Tmp
°C
Dew
Point
°C
Rel
Hum
%
Delta-T

°C
Wind Press
QNH
hPa
Press
MSL
hPa
Rain
since
9 am
mm
Dir
 
Spd
km/h
Gust
km/h
Spd
kts
Gust
kts
04/11:30pm 14.1 12.8 11.3 83 1.5 S 9 11 5 6 1020.7 1020.7 0.0
04/11:00pm 15.4 13.8 11.4 77 2.1 SSW 11 15 6 8 1020.9 1020.9 0.0
04/10:30pm 15.3 14.4 11.3 77 2.1 SW 7 11 4 6 1021.0 1021.0 0.0
04/10:00pm 15.9 14.7 11.7 76 2.3 SSW 9 13 5 7 1021.1 1021.1 0.0
04/09:30pm 16.3 14.7 11.7 74 2.5 SSW 11 15 6 8 1021.0 1021.0 0.0
04/09:00pm 16.5 15.0 11.9 74 2.5 SSW 11 15 6 8 1020.9 1020.9 0.0
04/08:30pm 16.9 15.4 12.0 73 2.7 SSW 11 15 6 8 1020.8 1020.8 0.0
04/08:00pm 16.5 14.5 11.6 73 2.6 SSW 13 17 7 9 1020.6 1020.6 0.0
04/07:30pm 16.9 15.1 12.0 73 2.7 SSW 13 19 7 10 1020.4 1020.4 0.0
04/07:00pm 17.4 15.2 12.1 71 2.9 SSW 15 24 8 13 1019.9 1019.9 0.0
04/06:30pm 17.6 14.7 12.3 71 2.9 S 19 26 10 14 1019.1 1019.1 0.0
04/06:00pm 18.1 14.6 12.3 69 3.2 S 22 32 12 17 1018.8 1018.8 0.0
04/05:30pm 18.4 14.2 12.4 68 3.3 SSE 26 37 14 20 1018.6 1018.6 0.0
04/05:00pm 19.0 15.9 12.3 65 3.7 S 20 32 11 17 1018.3 1018.3 0.0
04/04:30pm 19.9 16.0 12.2 61 4.3 SSE 24 37 13 20 1018.0 1018.0 0.0
04/04:00pm 20.4 16.7 11.6 57 4.9 S 22 30 12 16 1017.7 1017.7 0.0
04/03:30pm 20.8 16.8 11.7 56 5.1 S 24 35 13 19 1017.6 1017.6 0.0
04/03:00pm 19.7 15.0 12.0 61 4.3 SSE 28 37 15 20 1017.3 1017.3 0.0
04/02:30pm 20.9 16.4 11.5 55 5.2 SSE 26 35 14 19 1016.9 1016.9 0.0
04/02:00pm 20.6 16.3 10.7 53 5.4 SSE 24 41 13 22 1016.8 1016.8 0.0
04/01:30pm 21.1 15.2 10.3 50 5.9 S 32 48 17 26 1016.7 1016.7 0.0
04/01:00pm 22.7 17.7 10.8 47 6.6 S 28 46 15 25 1016.7 1016.7 0.0
04/12:57pm 22.3 17.2 10.5 47 6.5 S 28 46 15 25 1016.7 1016.7 0.0
04/12:30pm 22.3 17.4 9.8 45 6.8 S 26 41 14 22 1016.8 1016.8 0.0
04/12:00pm 22.7 17.7 9.5 43 7.1 S 26 39 14 21 1017.3 1017.3 0.0
04/11:30am 22.2 16.7 9.0 43 7.0 SSE 28 39 15 21 1017.5 1017.5 0.0
04/11:00am 21.6 16.0 8.8 44 6.8 S 28 39 15 21 1017.6 1017.6 0.0
04/10:50am 21.3 15.2 8.2 43 6.8 S 30 48 16 26 1017.7 1017.7 0.0
04/10:30am 21.5 15.9 8.7 44 6.8 S 28 44 15 24 1017.8 1017.8 0.0
04/10:00am 21.3 17.0 9.5 47 6.3 S 22 37 12 20 1017.7 1017.7 0.0
04/09:30am 20.9 16.3 9.5 48 6.1 S 24 39 13 21 1017.9 1017.9 0.0
04/09:00am 20.0 16.0 8.4 47 6.0 S 19 28 10 15 1017.8 1017.8 0.0
04/08:30am 19.5 16.2 7.9 47 6.0 SSW 15 24 8 13 1017.6 1017.6 0.0
04/08:00am 18.1 15.1 6.0 45 5.9 SSW 11 17 6 9 1017.2 1017.2 0.0
04/07:30am 17.2 13.8 6.1 48 5.4 SSW 13 20 7 11 1016.7 1016.7 0.0
04/07:00am 16.1 12.7 5.7 50 5.0 SSW 13 19 7 10 1016.1 1016.1 0.0
04/06:30am 15.3 11.4 5.5 52 4.7 SSW 15 20 8 11 1015.6 1015.6 0.0
04/06:00am 14.9 10.6 5.4 53 4.5 SSW 17 28 9 15 1015.0 1015.0 0.0
04/05:30am 13.5 10.9 6.1 61 3.5 SSW 9 15 5 8 1014.5 1014.5 0.0
04/05:00am 11.8 10.7 5.2 64 3.0 CALM 0 6 0 3 1014.0 1014.0 0.0
04/04:30am 13.9 11.0 6.7 62 3.5 S 11 17 6 9 1013.8 1013.8 0.0
04/04:00am 11.9 9.5 7.0 72 2.3 S 9 13 5 7 1013.6 1013.6 0.0
04/03:30am 11.6 10.0 6.3 70 2.5 WNW 4 9 2 5 1013.7 1013.7 0.0
04/03:00am 10.8 8.6 6.0 72 2.2 WSW 7 11 4 6 1013.6 1013.6 0.0
04/02:30am 12.7 11.4 5.8 63 3.2 W 2 7 1 4 1013.7 1013.7 0.0
04/02:00am 15.7 12.4 6.4 54 4.5 SW 13 20 7 11 1013.5 1013.5 0.0
04/01:30am 14.9 11.6 6.2 56 4.2 S 13 20 7 11 1014.2 1014.2 0.0
04/01:00am 15.2 12.6 6.0 54 4.4 SSW 9 13 5 7 1014.2 1014.2 0.0
04/12:30am 15.8 12.5 6.3 53 4.6 SW 13 19 7 10 1014.1 1014.1 0.0
04/12:00am 13.2 10.4 6.8 65 3.1 W 11 17 6 9 1014.3 1014.3 0.0
 
Date/Time
EST
Tmp

°C
App
Tmp
°C
Dew
Point
°C
Rel
Hum
%
Delta-T

°C
Wind Press
QNH
hPa
Press
MSL
hPa
Rain
since
9 am
mm
Dir
 
Spd
km/h
Gust
km/h
Spd
kts
Gust
kts
03/11:30pm 11.0 8.8 5.5 69 2.5 W 6 7 3 4 1014.0 1014.0 0.0
03/11:00pm 13.1 10.3 5.3 59 3.6 WSW 9 13 5 7 1014.1 1014.1 0.0
03/10:30pm 15.8 13.4 5.1 49 5.1 SW 7 11 4 6 1014.2 1014.2 0.0
03/10:00pm 16.7 12.3 5.0 46 5.6 WSW 17 24 9 13 1014.0 1014.0 0.0
03/09:30pm 16.7 13.0 4.7 45 5.7 SW 13 19 7 10 1013.9 1013.9 0.0
03/09:00pm 17.8 13.0 4.7 42 6.2 SW 19 26 10 14 1013.6 1013.6 0.0
03/08:30pm 17.9 11.9 5.2 43 6.1 W 26 41 14 22 1012.9 1012.9 0.0
03/08:20pm 18.5 12.1 5.0 41 6.5 W 28 44 15 24 1012.9 1012.9 0.0
03/08:00pm 17.6 13.9 6.2 47 5.6 WNW 15 24 8 13 1012.8 1012.8 0.0
03/07:30pm 18.8 15.4 6.0 43 6.3 WSW 13 20 7 11 1012.4 1012.4 0.0
03/07:00pm 19.7 14.3 4.6 37 7.3 W 22 32 12 17 1011.8 1011.8 0.0
03/06:30pm 20.3 14.8 3.9 34 7.8 W 22 35 12 19 1011.0 1011.0 0.0
03/06:00pm 19.8 16.0 3.9 35 7.6 W 13 19 7 10 1010.6 1010.6 0.0
03/05:30pm 20.7 16.0 3.4 32 8.2 W 17 28 9 15 1009.8 1009.8 0.0
03/05:00pm 22.4 15.9 2.5 27 9.4 W 26 41 14 22 1008.8 1008.8 0.0
03/04:30pm 23.5 18.7 2.4 25 10.0 W 17 32 9 17 1008.3 1008.3 0.0
03/04:00pm 23.9 16.2 2.1 24 10.4 W 32 50 17 27 1007.7 1007.7 0.0
03/03:30pm 24.6 16.5 0.8 21 11.1 W 33 57 18 31 1007.0 1007.0 0.0
03/03:21pm 24.6 17.3 0.2 20 11.2 W 28 52 15 28 1006.9 1006.9 0.0
03/03:00pm 25.2 18.3 2.6 23 11.0 NW 28 41 15 22 1006.8 1006.8 0.0
03/02:30pm 25.1 16.9 2.5 23 10.9 WNW 35 61 19 33 1006.4 1006.4 0.0
03/02:08pm 25.2 18.8 5.4 28 10.1 WNW 28 48 15 26 1006.2 1006.2 0.0
03/02:00pm 25.2 19.7 5.9 29 9.9 WNW 24 41 13 22 1006.4 1006.4 0.0
03/01:30pm 24.5 19.0 7.6 34 8.9 WNW 26 41 14 22 1006.8 1006.8 0.0
03/01:08pm 24.1 17.4 7.3 34 8.8 WNW 32 52 17 28 1007.5 1007.5 0.0
03/01:00pm 24.4 18.2 8.0 35 8.7 WNW 30 43 16 23 1007.7 1007.7 0.0
03/12:30pm 24.1 19.1 9.7 40 7.9 WNW 26 37 14 20 1008.2 1008.2 0.0
03/12:00pm 24.3 21.4 12.3 47 6.9 WNW 19 28 10 15 1008.7 1008.7 0.0
03/11:30am 23.7 19.7 13.0 51 6.2 WNW 26 37 14 20 1008.9 1008.9 0.0
03/11:00am 22.9 21.7 17.1 70 3.6 WNW 19 28 10 15 1009.3 1009.3 0.0
03/10:30am 21.7 20.5 17.5 77 2.6 NNW 20 32 11 17 1009.8 1009.8 0.0
03/10:00am 20.9 18.3 17.9 83 1.9 N 28 37 15 20 1010.1 1010.1 0.0
03/09:30am 20.4 17.6 17.2 82 2.0 N 28 35 15 19 1010.3 1010.3 0.0
03/09:13am 19.7 16.7 16.7 83 1.8 N 28 37 15 20 1010.6 1010.6 0.0
03/09:00am 19.7 18.0 17.1 85 1.6 NNW 22 32 12 17 1010.8 1010.8 6.4
03/08:30am 18.4 17.4 16.6 89 1.1 NNW 17 26 9 14 1011.1 1011.1 6.4
03/08:18am 18.3 17.3 16.6 90 1.0 NNW 17 28 9 15 1011.1 1011.1 6.4
03/08:00am 18.3 16.9 16.6 90 1.0 NNW 19 28 10 15 1011.1 1011.1 6.4
03/07:30am 17.7 16.3 16.6 93 0.7 NNW 19 24 10 13 1011.3 1011.3 6.4
03/07:15am 17.6 14.9 16.5 93 0.7 NNW 26 37 14 20 1011.1 1011.1 6.4
03/07:00am 17.6 14.1 16.5 93 0.7 NNW 30 41 16 22 1010.4 1010.4 6.4
03/06:56am 17.7 13.9 16.6 93 0.7 NNW 32 43 17 23 1010.7 1010.7 6.2
03/06:43am 17.6 15.3 16.6 94 0.6 N 24 32 13 17 1010.6 1010.6 4.8
03/06:30am 17.3 15.2 16.2 93 0.7 NNW 22 32 12 17 1010.8 1010.8 4.6
03/06:09am 17.4 15.7 15.7 90 1.0 NW 19 28 10 15 1011.5 1011.5 1.4
03/06:00am 17.6 16.1 15.4 87 1.3 NW 17 24 9 13 1011.4 1011.4 0.0
03/05:32am 17.3 16.2 15.3 88 1.2 NNW 15 24 8 13 1010.6 1010.6 0.0
03/05:30am 17.2 16.1 15.2 88 1.2 NNW 15 24 8 13 1010.5 1010.5 0.0
03/05:00am 16.8 16.0 15.0 89 1.0 NNW 13 19 7 10 1010.7 1010.7 0.0
03/04:49am 16.7 16.1 14.7 88 1.1 NNW 11 17 6 9 1010.7 1010.7 0.0
03/04:30am 16.5 15.8 14.3 87 1.3 NW 11 17 6 9 1010.8 1010.8 0.0
03/04:00am 16.5 15.4 14.3 87 1.3 NW 13 15 7 8 1010.8 1010.8 0.0
03/03:30am 16.7 15.1 14.0 84 1.5 NNW 15 19 8 10 1010.8 1010.8 0.0
03/03:00am 17.3 15.4 14.2 82 1.8 NNW 17 22 9 12 1011.6 1011.6 0.0
03/02:30am 17.4 14.2 14.3 82 1.8 NNW 24 39 13 21 1011.5 1011.5 0.0
03/02:00am 17.8 15.6 13.3 75 2.5 NW 17 22 9 12 1013.2 1013.2 0.0
03/01:30am 18.6 16.0 13.7 73 2.8 NNW 20 28 11 15 1012.8 1012.8 0.0
03/01:00am 18.3 15.4 13.0 71 3.0 N 20 24 11 13 1013.2 1013.2 0.0
03/12:30am 18.6 16.2 12.8 69 3.3 NNW 17 24 9 13 1014.4 1014.4 0.0
03/12:00am 17.7 16.2 13.2 75 2.5 NW 13 19 7 10 1014.8 1014.8 0.0
 
Date/Time
EST
Tmp

°C
App
Tmp
°C
Dew
Point
°C
Rel
Hum
%
Delta-T

°C
Wind Press
QNH
hPa
Press
MSL
hPa
Rain
since
9 am
mm
Dir
 
Spd
km/h
Gust
km/h
Spd
kts
Gust
kts
02/11:30pm 16.3 15.8 12.5 78 2.1 NW 7 9 4 5 1015.1 1015.1 0.0
02/11:00pm 16.8 15.8 12.3 75 2.5 WNW 9 11 5 6 1014.9 1014.9 0.0
02/10:30pm 15.3 13.5 12.1 81 1.7 NW 13 15 7 8 1014.7 1014.7 0.0
02/10:00pm 14.1 13.2 10.7 80 1.8 WSW 6 6 3 3 1014.9 1014.9 0.0
02/09:30pm 13.3 12.8 10.7 84 1.4 WSW 4 9 2 5 1015.0 1015.0 0.0
02/09:00pm 13.0 11.2 10.9 87 1.1 WSW 11 15 6 8 1015.0 1015.0 0.0
02/08:30pm 12.8 11.6 10.3 85 1.3 W 7 9 4 5 1015.1 1015.1 0.0
02/08:00pm 13.3 12.4 10.5 83 1.5 WSW 6 7 3 4 1015.4 1015.4 0.0
02/07:30pm 13.8 12.4 10.8 82 1.6 WSW 9 13 5 7 1015.7 1015.7 0.0
02/07:00pm 14.7 13.6 10.7 77 2.1 W 7 9 4 5 1015.4 1015.4 0.0
02/06:30pm 16.0 14.9 10.5 70 2.9 NW 7 9 4 5 1015.4 1015.4 0.0
02/06:00pm 17.5 15.4 11.1 66 3.5 N 13 15 7 8 1015.4 1015.4 0.0
02/05:30pm 18.6 16.7 10.4 59 4.4 NNW 11 17 6 9 1015.6 1015.6 0.0
02/05:00pm 19.7 16.7 10.7 56 4.9 N 17 20 9 11 1015.1 1015.1 0.0
02/04:30pm 20.7 17.5 9.9 50 5.8 NNE 17 20 9 11 1014.9 1014.9 0.0
02/04:00pm 20.7 17.5 9.9 50 5.8 NNE 17 20 9 11 1015.3 1015.3 0.0
02/03:30pm 21.1 18.2 9.7 48 6.1 NNE 15 20 8 11 1015.4 1015.4 0.0
02/03:00pm 21.2 18.2 9.4 47 6.3 NE 15 20 8 11 1015.6 1015.6 0.0
02/02:30pm 21.1 17.8 9.7 48 6.1 NNE 17 20 9 11 1015.6 1015.6 0.0
02/02:00pm 21.0 18.0 9.3 47 6.2 NNE 15 20 8 11 1016.1 1016.1 0.0
02/01:30pm 20.3 16.8 8.9 48 6.0 NNE 17 20 9 11 1016.5 1016.5 0.0
02/01:00pm 20.7 17.3 9.3 48 6.1 NE 17 20 9 11 1017.0 1017.0 0.0
02/12:30pm 20.0 16.3 8.0 46 6.2 NE 17 20 9 11 1017.5 1017.5 0.0
02/12:00pm 20.8 17.5 6.4 39 7.2 NE 13 17 7 9 1017.8 1017.8 0.0
02/11:30am 20.6 17.2 4.2 34 7.9 NNE 11 15 6 8 1018.4 1018.4 0.0
02/11:00am 19.4 16.2 5.1 39 6.9 NNE 11 13 6 7 1018.8 1018.8 0.0
02/10:30am 18.7 15.8 4.5 39 6.8 NNE 9 15 5 8 1019.2 1019.2 0.0
02/10:00am 19.2 17.3 3.0 34 7.5 W 2 6 1 3 1019.2 1019.2 0.0
02/09:30am 17.4 14.6 5.0 44 5.9 NNW 9 11 5 6 1019.8 1019.8 0.0
02/09:00am 17.3 14.6 7.4 52 5.0 NNE 11 15 6 8 1019.3 1019.3 0.0
02/08:30am 16.5 15.9 7.4 55 4.5 CALM 0 0 0 0 1019.4 1019.4 0.0
02/08:00am 14.7 14.4 8.6 67 3.1 CALM 0 0 0 0 1019.1 1019.1 0.0
02/07:30am 10.7 8.9 7.2 79 1.7 W 6 7 3 4 1018.8 1018.8 0.0
02/07:00am 10.0 8.3 7.4 84 1.2 WSW 6 7 3 4 1018.2 1018.2 0.0

Latest Capital City Observations: Canberra | Sydney | Melbourne | Brisbane | Adelaide | Perth | Hobart | Darwin

Other Formats:

Comma delimited format used in spreadsheet applications
http://www.bom.gov.au/fwo/IDQ60901/IDQ60901.94592.axf

JavaScript Object Notation format (JSON) in row-major order
http://www.bom.gov.au/fwo/IDQ60901/IDQ60901.94592.json